Time;durP1;ratioP1;P1;durP2;ratioP2;P2;SDS_P1;SDS_P2;PMS_P1;PMS_P2;Temp;Humidity;BMP_temperature;BMP_pressure;BME280_temperature;BME280_humidity;BME280_pressure;Samples;Min_cycle;Max_cycle;Signal;HPM_P1;HPM_P2
2023/10/15 00:01:44;;;;;;;9.60;3.83;;;14.40;59.50;;;;;;5091743;28;20180;-91
2023/10/15 00:04:12;;;;;;;8.40;3.90;;;14.30;59.20;;;;;;5079655;28;20173;-91
2023/10/15 00:06:38;;;;;;;7.93;3.93;;;14.30;59.50;;;;;;5081516;28;20208;-91
2023/10/15 00:09:04;;;;;;;9.97;4.10;;;14.30;58.90;;;;;;5092633;28;20246;-91
2023/10/15 00:11:30;;;;;;;8.30;4.03;;;14.30;58.80;;;;;;5077895;28;20875;-92
2023/10/15 00:13:56;;;;;;;8.17;3.83;;;14.30;59.10;;;;;;5097139;28;20176;-91
2023/10/15 00:16:22;;;;;;;11.73;4.03;;;14.30;58.90;;;;;;5095303;28;20237;-91
2023/10/15 00:18:48;;;;;;;12.50;4.10;;;14.20;58.90;;;;;;5093989;28;20191;-92
2023/10/15 00:21:14;;;;;;;10.53;4.10;;;14.20;58.70;;;;;;5095950;28;20183;-93
2023/10/15 00:23:44;;;;;;;9.50;3.83;;;14.20;58.60;;;;;;5093441;28;20272;-91
2023/10/15 00:26:14;;;;;;;10.23;3.80;;;14.20;58.80;;;;;;5076207;28;20227;-91
2023/10/15 00:28:45;;;;;;;10.47;3.10;;;14.10;58.30;;;;;;5096821;28;20214;-91
2023/10/15 00:31:14;;;;;;;7.30;4.00;;;14.10;58.40;;;;;;5097994;28;20176;-91
2023/10/15 00:33:46;;;;;;;8.23;3.23;;;14.00;58.50;;;;;;5094661;28;20165;-91
2023/10/15 00:36:13;;;;;;;9.20;3.73;;;14.00;58.50;;;;;;5107236;28;20647;-90
2023/10/15 00:38:46;;;;;;;11.67;4.03;;;13.90;58.40;;;;;;5097860;28;20264;-91
2023/10/15 00:41:13;;;;;;;11.10;3.97;;;13.90;58.80;;;;;;5111290;28;20627;-91
2023/10/15 00:44:09;;;;;;;9.43;3.67;;;13.90;59.00;;;;;;5101271;28;20503;-91
2023/10/15 00:46:37;;;;;;;10.70;3.93;;;13.90;58.60;;;;;;5079752;28;20707;-91
2023/10/15 00:49:14;;;;;;;6.20;3.30;;;14.00;58.80;;;;;;5092814;28;20184;-91
2023/10/15 00:51:43;;;;;;;8.93;3.90;;;13.90;58.80;;;;;;5085576;28;20189;-91
2023/10/15 00:54:15;;;;;;;8.37;3.43;;;13.80;58.60;;;;;;5092521;28;20178;-93
2023/10/15 00:56:44;;;;;;;8.70;3.80;;;13.80;59.10;;;;;;5094261;28;20196;-93
2023/10/15 00:59:17;;;;;;;9.97;3.87;;;13.80;58.50;;;;;;5078020;28;20214;-93
2023/10/15 01:04:41;;;;;;;10.27;3.50;;;13.90;58.70;;;;;;5074424;28;20201;-91
2023/10/15 01:07:33;;;;;;;8.80;3.50;;;13.90;58.50;;;;;;5070987;28;20208;-91
2023/10/15 01:09:59;;;;;;;7.70;3.00;;;13.80;58.30;;;;;;5064592;28;20180;-92
2023/10/15 01:12:30;;;;;;;10.30;3.73;;;13.80;58.50;;;;;;5090385;28;20169;-92
2023/10/15 01:14:56;;;;;;;6.80;3.03;;;13.80;58.50;;;;;;5054245;28;20185;-93
2023/10/15 01:17:36;;;;;;;9.33;3.40;;;13.80;58.20;;;;;;5059728;28;20173;-92
2023/10/15 01:20:05;;;;;;;11.93;3.50;;;13.80;58.30;;;;;;5069779;28;20170;-92
2023/10/15 01:22:32;;;;;;;8.70;3.60;;;13.80;58.40;;;;;;5054451;28;20177;-90
2023/10/15 01:25:10;;;;;;;7.93;3.10;;;13.70;58.50;;;;;;5056542;28;20209;-91
2023/10/15 01:27:36;;;;;;;12.00;3.63;;;13.70;58.20;;;;;;5073426;28;20217;-91
2023/10/15 01:30:03;;;;;;;6.20;3.10;;;13.70;58.30;;;;;;5073801;28;20186;-91
2023/10/15 01:32:31;;;;;;;7.13;3.20;;;13.60;58.10;;;;;;5057080;28;20170;-93
2023/10/15 01:34:59;;;;;;;7.53;2.97;;;13.70;58.40;;;;;;5062827;28;20181;-91
2023/10/15 01:37:25;;;;;;;6.30;2.73;;;13.60;58.30;;;;;;5079744;28;20196;-91
2023/10/15 01:40:24;;;;;;;8.17;2.83;;;13.60;57.90;;;;;;5080486;28;20184;-91
2023/10/15 01:42:53;;;;;;;12.00;3.40;;;13.60;58.20;;;;;;5085633;28;20217;-91
2023/10/15 01:45:30;;;;;;;10.30;3.30;;;13.50;58.10;;;;;;5077742;28;20165;-93
2023/10/15 01:48:05;;;;;;;7.70;3.00;;;13.50;57.90;;;;;;5093548;28;20208;-93
2023/10/15 01:50:44;;;;;;;7.67;3.13;;;13.50;58.10;;;;;;5091215;28;20173;-90
2023/10/15 01:53:10;;;;;;;6.07;2.87;;;13.50;58.10;;;;;;5083555;28;20173;-90
2023/10/15 01:55:36;;;;;;;5.60;2.87;;;13.50;58.00;;;;;;5102376;28;20192;-91
2023/10/15 01:58:04;;;;;;;7.57;2.80;;;13.50;58.10;;;;;;5103431;28;20192;-90
2023/10/15 02:00:43;;;;;;;6.97;2.70;;;13.40;57.90;;;;;;5099034;28;20651;-90
2023/10/15 02:03:13;;;;;;;8.23;3.10;;;13.40;58.00;;;;;;5094900;28;20172;-90
2023/10/15 02:05:41;;;;;;;9.13;2.83;;;13.40;58.00;;;;;;5074333;28;20180;-90
2023/10/15 02:08:14;;;;;;;8.57;3.20;;;13.50;58.00;;;;;;5110137;28;20662;-91
2023/10/15 02:10:46;;;;;;;9.13;2.77;;;13.40;57.60;;;;;;5093817;28;20218;-91
2023/10/15 02:13:12;;;;;;;12.27;3.30;;;13.30;57.50;;;;;;5095424;28;20180;-89
2023/10/15 02:15:39;;;;;;;6.60;3.00;;;13.30;57.60;;;;;;5086476;28;20173;-91
2023/10/15 02:18:13;;;;;;;9.50;2.63;;;13.30;57.90;;;;;;5076800;28;20180;-91
2023/10/15 02:20:44;;;;;;;7.80;3.37;;;13.30;58.00;;;;;;5096996;28;20164;-90
2023/10/15 02:23:11;;;;;;;8.37;3.17;;;13.40;57.70;;;;;;5090079;28;20169;-91
2023/10/15 02:25:44;;;;;;;8.50;2.77;;;13.30;57.90;;;;;;5095574;28;20198;-91
2023/10/15 02:28:10;;;;;;;9.70;3.23;;;13.20;57.70;;;;;;5093757;28;20186;-90
2023/10/15 02:30:40;;;;;;;12.23;4.10;;;13.10;57.70;;;;;;5106658;28;20191;-90
2023/10/15 02:33:06;;;;;;;11.67;3.33;;;13.10;57.80;;;;;;5093411;28;20200;-90
2023/10/15 02:35:41;;;;;;;10.10;3.00;;;13.00;57.50;;;;;;5073810;28;20260;-90
2023/10/15 02:38:10;;;;;;;7.27;2.90;;;13.00;57.80;;;;;;5092633;28;20178;-90
2023/10/15 02:40:56;;;;;;;9.80;2.90;;;12.90;57.80;;;;;;5093524;28;20719;-89
2023/10/15 02:43:26;;;;;;;7.27;2.93;;;12.90;57.70;;;;;;5097925;28;20222;-91
2023/10/15 02:45:51;;;;;;;11.07;3.13;;;12.80;57.70;;;;;;5089568;28;20257;-90
2023/10/15 02:48:22;;;;;;;7.97;3.00;;;12.80;57.80;;;;;;5090017;28;20178;-90
2023/10/15 02:51:00;;;;;;;6.07;2.80;;;13.00;57.90;;;;;;5089525;28;20871;-90
2023/10/15 02:53:38;;;;;;;8.60;2.83;;;12.80;58.00;;;;;;5095205;28;21608;-89
2023/10/15 02:56:10;;;;;;;6.57;3.07;;;12.80;57.80;;;;;;5103582;28;20179;-90
2023/10/15 02:58:36;;;;;;;8.20;2.80;;;12.90;57.90;;;;;;5100471;28;20184;-90
2023/10/15 03:01:19;;;;;;;9.47;3.10;;;12.90;57.70;;;;;;5081374;28;20204;-90
2023/10/15 03:03:49;;;;;;;11.53;2.80;;;12.90;57.80;;;;;;5075719;28;20603;-90
2023/10/15 03:06:28;;;;;;;9.43;2.90;;;12.90;57.80;;;;;;5093486;28;20199;-90
2023/10/15 03:08:56;;;;;;;10.70;3.30;;;12.90;57.80;;;;;;5107370;28;20179;-90
2023/10/15 03:11:23;;;;;;;7.80;3.10;;;12.90;57.70;;;;;;5082796;28;20169;-91
2023/10/15 03:14:00;;;;;;;5.67;2.73;;;12.80;57.60;;;;;;5093568;28;20168;-90
2023/10/15 03:16:31;;;;;;;12.50;3.13;;;12.80;57.60;;;;;;5089364;28;20565;-91
2023/10/15 03:18:59;;;;;;;8.80;3.07;;;12.80;57.60;;;;;;5100382;28;20213;-92
2023/10/15 03:21:25;;;;;;;6.87;2.80;;;12.70;57.60;;;;;;5101381;28;20193;-90
2023/10/15 03:23:57;;;;;;;7.73;3.20;;;12.80;58.00;;;;;;5096787;28;20179;-90
2023/10/15 03:26:34;;;;;;;8.10;2.97;;;12.70;57.60;;;;;;5104330;28;20276;-90
2023/10/15 03:29:06;;;;;;;8.30;2.53;;;12.60;57.60;;;;;;5097973;28;20191;-91
2023/10/15 03:31:32;;;;;;;8.83;3.20;;;12.50;57.90;;;;;;5090467;28;20175;-90
2023/10/15 03:36:43;;;;;;;7.60;3.00;;;12.50;58.10;;;;;;5088578;28;20656;-91
2023/10/15 03:41:54;;;;;;;7.70;3.10;;;12.50;58.00;;;;;;5086529;28;20211;-91
2023/10/15 03:44:27;;;;;;;6.67;2.60;;;12.40;57.90;;;;;;5099457;28;20887;-90
2023/10/15 03:46:54;;;;;;;8.73;3.13;;;12.30;58.10;;;;;;5102262;28;20200;-90
2023/10/15 03:49:27;;;;;;;9.23;3.00;;;12.30;58.30;;;;;;5098524;28;20193;-92
2023/10/15 03:51:53;;;;;;;8.43;3.03;;;12.30;58.30;;;;;;5085012;28;20627;-93
2023/10/15 03:54:22;;;;;;;6.77;2.70;;;12.40;58.40;;;;;;5114434;28;20198;-91
2023/10/15 03:56:56;;;;;;;7.77;3.20;;;12.20;58.40;;;;;;5108712;28;20186;-92
2023/10/15 03:59:26;;;;;;;8.40;2.90;;;12.20;58.30;;;;;;5094045;28;20210;-93
2023/10/15 04:01:52;;;;;;;16.00;3.50;;;12.20;58.50;;;;;;5077167;28;20519;-92
2023/10/15 04:04:18;;;;;;;7.70;2.53;;;12.30;58.40;;;;;;5086644;28;20233;-91
2023/10/15 04:06:50;;;;;;;9.87;3.73;;;12.30;58.40;;;;;;5096986;28;20200;-91
2023/10/15 04:09:16;;;;;;;7.20;3.07;;;12.30;58.60;;;;;;5113056;28;20183;-91
2023/10/15 04:11:42;;;;;;;11.73;2.97;;;12.30;58.40;;;;;;5099944;28;20222;-91
2023/10/15 04:16:46;;;;;;;10.77;3.10;;;12.30;58.40;;;;;;5090665;28;20193;-92
2023/10/15 04:19:17;;;;;;;8.47;3.20;;;12.30;58.40;;;;;;5095431;28;20187;-91
2023/10/15 04:21:44;;;;;;;8.00;2.93;;;12.30;58.30;;;;;;5076867;28;20200;-92
2023/10/15 04:24:12;;;;;;;10.97;3.07;;;12.30;58.20;;;;;;5095158;28;20180;-93
2023/10/15 04:26:48;;;;;;;7.93;3.10;;;12.30;58.40;;;;;;5102294;28;20229;-92
2023/10/15 04:29:17;;;;;;;6.53;2.73;;;12.30;58.30;;;;;;5094383;28;20184;-91
2023/10/15 04:31:56;;;;;;;11.37;3.47;;;12.30;58.20;;;;;;5092148;28;20591;-89
2023/10/15 04:34:25;;;;;;;9.67;3.30;;;12.30;58.20;;;;;;5101367;28;20191;-91
2023/10/15 04:36:51;;;;;;;8.50;3.13;;;12.20;58.10;;;;;;5100129;28;20245;-91
2023/10/15 04:39:21;;;;;;;7.70;3.33;;;12.20;58.40;;;;;;5091028;28;20193;-90
2023/10/15 04:41:49;;;;;;;7.80;2.90;;;12.20;58.40;;;;;;5093899;28;20255;-90
2023/10/15 04:44:25;;;;;;;12.33;3.50;;;12.30;58.50;;;;;;5095767;28;20219;-90
2023/10/15 04:46:57;;;;;;;8.33;2.93;;;12.30;58.40;;;;;;5095309;28;20728;-91
2023/10/15 04:49:23;;;;;;;8.87;3.10;;;12.30;58.50;;;;;;5092149;28;20205;-91
2023/10/15 04:51:49;;;;;;;9.87;3.07;;;12.30;58.50;;;;;;5095159;28;20187;-91
2023/10/15 04:54:14;;;;;;;10.37;3.30;;;12.30;58.20;;;;;;5094334;28;20173;-91
2023/10/15 04:56:40;;;;;;;10.30;3.90;;;12.30;58.10;;;;;;5094244;28;20176;-90
2023/10/15 04:59:06;;;;;;;11.23;3.50;;;12.30;58.10;;;;;;5094483;28;20179;-90
2023/10/15 05:01:34;;;;;;;7.77;3.50;;;12.30;58.00;;;;;;5088626;28;20233;-90
2023/10/15 05:04:01;;;;;;;12.07;3.80;;;12.30;58.20;;;;;;5092088;28;20183;-90
2023/10/15 05:06:28;;;;;;;8.57;3.27;;;12.30;58.30;;;;;;5077082;28;20197;-90
2023/10/15 05:08:54;;;;;;;8.87;3.13;;;12.30;58.20;;;;;;5095178;28;20582;-91
2023/10/15 05:11:23;;;;;;;10.97;3.73;;;12.30;58.10;;;;;;5098614;28;20263;-89
2023/10/15 05:13:52;;;;;;;8.70;3.63;;;12.20;58.00;;;;;;5098648;28;20199;-91
2023/10/15 05:16:19;;;;;;;10.40;3.43;;;12.10;58.30;;;;;;5095392;28;20713;-92
2023/10/15 05:18:47;;;;;;;6.33;3.20;;;12.30;58.70;;;;;;5093955;28;20176;-90
2023/10/15 05:21:13;;;;;;;6.60;3.40;;;12.20;58.50;;;;;;5090786;28;20198;-91
2023/10/15 05:23:39;;;;;;;10.77;3.53;;;12.30;58.60;;;;;;5089852;28;20176;-92
2023/10/15 05:26:05;;;;;;;7.97;3.60;;;12.20;58.20;;;;;;5092170;28;20567;-91
2023/10/15 05:28:31;;;;;;;11.00;2.97;;;12.20;58.20;;;;;;5092926;28;20181;-92
2023/10/15 05:31:00;;;;;;;12.70;3.50;;;12.20;58.30;;;;;;5090970;28;20231;-91
2023/10/15 05:33:28;;;;;;;9.13;3.13;;;12.20;58.20;;;;;;5090869;28;20249;-92
2023/10/15 05:35:56;;;;;;;9.40;3.53;;;12.20;58.60;;;;;;5097435;28;20262;-92
2023/10/15 05:38:22;;;;;;;7.93;2.83;;;12.20;58.50;;;;;;5101407;28;20210;-92
2023/10/15 05:40:49;;;;;;;7.53;3.67;;;12.20;58.30;;;;;;5079740;28;20630;-92
2023/10/15 05:43:17;;;;;;;7.73;3.37;;;12.30;58.60;;;;;;5092931;28;20226;-91
2023/10/15 05:45:46;;;;;;;8.57;3.23;;;12.30;58.40;;;;;;5085437;28;20165;-93
2023/10/15 05:48:11;;;;;;;13.33;3.50;;;12.30;58.40;;;;;;5093540;28;20181;-92
2023/10/15 05:50:37;;;;;;;10.10;3.43;;;12.20;58.30;;;;;;5091934;28;20237;-92
2023/10/15 05:53:03;;;;;;;9.03;3.50;;;12.20;58.40;;;;;;5092603;28;20184;-91
2023/10/15 05:55:29;;;;;;;10.60;3.30;;;12.20;58.40;;;;;;5086032;28;20636;-91
2023/10/15 05:57:54;;;;;;;11.87;3.03;;;12.20;58.40;;;;;;5092801;28;20189;-89
2023/10/15 06:00:26;;;;;;;10.50;3.63;;;12.20;58.70;;;;;;5105741;28;20183;-91
2023/10/15 06:02:53;;;;;;;9.33;3.77;;;12.10;58.40;;;;;;5072764;28;20189;-91
2023/10/15 06:08:43;;;;;;;9.37;3.53;;;12.20;58.80;;;;;;5091248;28;20192;-90
2023/10/15 06:11:09;;;;;;;11.27;3.70;;;12.20;58.60;;;;;;5088618;28;20204;-89
2023/10/15 06:13:34;;;;;;;12.10;3.40;;;12.20;58.50;;;;;;5099616;28;20538;-92
2023/10/15 06:16:01;;;;;;;12.30;3.60;;;12.20;58.40;;;;;;5090259;28;20169;-89
2023/10/15 06:18:27;;;;;;;9.80;3.47;;;12.20;59.10;;;;;;5076563;28;20263;-89
2023/10/15 06:20:53;;;;;;;9.60;3.70;;;12.20;58.50;;;;;;5111978;28;20262;-91
2023/10/15 06:23:18;;;;;;;11.53;3.93;;;12.30;58.30;;;;;;5107593;28;20179;-89
2023/10/15 06:25:44;;;;;;;12.43;3.60;;;12.20;58.30;;;;;;5100417;28;20240;-92
2023/10/15 06:28:13;;;;;;;9.83;3.20;;;12.30;58.20;;;;;;5092586;28;20279;-89
2023/10/15 06:30:43;;;;;;;6.40;2.90;;;12.20;58.20;;;;;;5091890;28;20182;-90
2023/10/15 06:33:09;;;;;;;12.40;3.17;;;12.20;58.40;;;;;;5078665;28;20226;-89
2023/10/15 06:35:35;;;;;;;8.17;2.83;;;12.20;58.00;;;;;;5088974;28;20172;-89
2023/10/15 06:38:01;;;;;;;12.07;3.77;;;12.20;58.20;;;;;;5087732;28;20193;-91
2023/10/15 06:40:28;;;;;;;11.00;3.57;;;12.20;58.20;;;;;;5084453;28;20219;-91
2023/10/15 06:43:00;;;;;;;12.73;3.43;;;12.20;58.20;;;;;;5108550;28;20424;-91
2023/10/15 06:45:27;;;;;;;9.43;2.90;;;12.40;58.40;;;;;;5093616;28;20184;-90
2023/10/15 06:47:54;;;;;;;6.77;3.00;;;12.20;58.30;;;;;;5092283;28;20211;-91
2023/10/15 06:50:20;;;;;;;12.27;3.67;;;12.20;58.30;;;;;;5089786;28;20216;-90
2023/10/15 06:52:46;;;;;;;8.40;3.23;;;12.20;58.40;;;;;;5083695;28;20242;-90
2023/10/15 06:55:13;;;;;;;11.57;3.43;;;12.20;58.00;;;;;;5091041;28;20177;-89
2023/10/15 06:57:39;;;;;;;12.77;3.47;;;12.20;58.00;;;;;;5092840;28;20275;-90
2023/10/15 07:00:23;;;;;;;9.37;3.37;;;12.20;57.90;;;;;;5105906;28;20539;-89
2023/10/15 07:02:49;;;;;;;9.83;3.67;;;12.20;57.80;;;;;;5077262;28;20173;-90
2023/10/15 07:05:16;;;;;;;12.40;3.53;;;12.20;58.00;;;;;;5078324;28;20173;-90
2023/10/15 07:07:45;;;;;;;7.77;3.13;;;12.20;57.90;;;;;;5076533;28;20380;-92
2023/10/15 07:10:12;;;;;;;10.57;3.07;;;12.20;58.10;;;;;;5090723;28;20249;-89
2023/10/15 07:12:37;;;;;;;9.50;3.33;;;12.10;58.20;;;;;;5086646;28;20621;-89
2023/10/15 07:15:05;;;;;;;10.00;3.27;;;12.10;58.30;;;;;;5086209;28;20179;-91
2023/10/15 07:17:31;;;;;;;10.03;3.57;;;12.20;58.70;;;;;;5086628;28;20188;-90
2023/10/15 07:19:56;;;;;;;10.30;3.30;;;12.20;58.30;;;;;;5083068;28;20195;-91
2023/10/15 07:22:22;;;;;;;13.83;4.00;;;12.20;58.00;;;;;;5099373;28;20188;-89
2023/10/15 07:24:48;;;;;;;10.07;3.53;;;12.20;58.20;;;;;;5071750;28;20184;-90
2023/10/15 07:27:15;;;;;;;14.13;3.03;;;12.20;58.00;;;;;;5078336;28;20200;-90
2023/10/15 07:29:40;;;;;;;8.40;3.10;;;12.20;57.80;;;;;;5080313;28;20189;-90
2023/10/15 07:32:07;;;;;;;12.43;3.60;;;12.30;57.90;;;;;;5079703;28;20325;-90
2023/10/15 07:34:33;;;;;;;9.10;3.13;;;12.20;58.30;;;;;;5081805;28;20212;-90
2023/10/15 07:36:58;;;;;;;11.10;3.60;;;12.30;58.10;;;;;;5091409;28;20715;-90
2023/10/15 07:39:25;;;;;;;9.97;3.20;;;12.50;58.00;;;;;;5085178;28;20236;-91
2023/10/15 07:41:54;;;;;;;10.90;3.53;;;12.50;57.40;;;;;;5081817;28;20237;-90
2023/10/15 07:44:20;;;;;;;12.33;3.50;;;12.60;57.10;;;;;;5075908;28;20667;-90
2023/10/15 07:46:46;;;;;;;12.53;3.50;;;12.70;56.90;;;;;;5080445;28;20413;-90
2023/10/15 07:49:12;;;;;;;9.27;3.00;;;12.80;56.40;;;;;;5088971;28;20189;-90
2023/10/15 07:51:39;;;;;;;9.33;2.90;;;12.80;55.80;;;;;;5086700;28;20317;-90
2023/10/15 07:54:05;;;;;;;10.03;3.07;;;12.70;55.90;;;;;;5080156;28;20251;-90
2023/10/15 07:56:34;;;;;;;11.10;3.03;;;12.80;55.60;;;;;;5082562;28;20184;-90
2023/10/15 07:59:08;;;;;;;10.83;3.10;;;12.90;55.30;;;;;;5077526;28;20656;-90
2023/10/15 08:01:33;;;;;;;7.60;2.97;;;12.90;54.70;;;;;;5076925;28;20176;-90
2023/10/15 08:03:59;;;;;;;12.07;3.33;;;12.90;54.70;;;;;;5083652;28;20215;-90
2023/10/15 08:06:26;;;;;;;9.83;3.30;;;12.80;54.70;;;;;;5089523;28;20196;-90
2023/10/15 08:08:51;;;;;;;8.23;3.00;;;12.70;54.10;;;;;;5079031;28;20250;-90
2023/10/15 08:11:17;;;;;;;7.13;3.00;;;12.70;54.00;;;;;;5078304;28;20186;-89
2023/10/15 08:13:42;;;;;;;8.80;3.23;;;12.60;54.50;;;;;;5087628;28;20550;-88
2023/10/15 08:16:08;;;;;;;13.20;3.57;;;12.70;54.80;;;;;;5087907;28;20731;-90
2023/10/15 08:18:34;;;;;;;6.97;2.63;;;12.70;53.50;;;;;;5087205;28;20173;-87
2023/10/15 08:20:59;;;;;;;7.97;2.87;;;12.80;53.20;;;;;;5085411;28;20272;-87
2023/10/15 08:23:26;;;;;;;9.17;2.70;;;12.70;53.60;;;;;;5083434;28;20657;-86
2023/10/15 08:25:52;;;;;;;10.17;3.63;;;12.80;53.20;;;;;;5085347;28;20229;-88
2023/10/15 08:28:18;;;;;;;8.73;3.27;;;12.80;53.80;;;;;;5086597;28;20196;-87
2023/10/15 08:30:43;;;;;;;8.13;3.10;;;12.90;53.60;;;;;;5090120;28;20172;-89
2023/10/15 08:33:12;;;;;;;9.57;2.83;;;12.80;53.30;;;;;;5093655;28;20639;-87
2023/10/15 08:35:40;;;;;;;9.10;2.27;;;12.70;53.20;;;;;;5091257;28;20172;-87
2023/10/15 08:38:07;;;;;;;8.27;3.03;;;12.70;53.80;;;;;;5092164;28;20201;-89
2023/10/15 08:40:41;;;;;;;7.67;3.23;;;12.80;53.60;;;;;;5060963;27;20234;-89
2023/10/15 08:43:20;;;;;;;7.23;3.10;;;12.80;53.10;;;;;;5004827;28;20262;-89
2023/10/15 08:45:47;;;;;;;7.33;3.13;;;12.80;53.10;;;;;;5027894;28;20186;-88
2023/10/15 08:48:15;;;;;;;16.67;3.63;;;12.80;53.40;;;;;;5013717;28;20230;-88
2023/10/15 08:50:42;;;;;;;10.10;2.73;;;12.80;53.10;;;;;;5009983;28;20186;-88
2023/10/15 08:53:08;;;;;;;7.73;2.80;;;12.80;52.50;;;;;;5026705;28;20183;-87
2023/10/15 08:55:38;;;;;;;15.10;3.20;;;12.80;52.90;;;;;;5010698;28;20179;-87
2023/10/15 08:58:06;;;;;;;8.53;2.67;;;12.80;53.50;;;;;;5012527;28;20207;-87
2023/10/15 09:00:32;;;;;;;10.93;3.07;;;12.90;52.90;;;;;;5007421;28;20275;-89
2023/10/15 09:03:02;;;;;;;7.23;2.90;;;13.10;53.00;;;;;;5005984;28;20236;-88
2023/10/15 09:05:33;;;;;;;9.23;2.43;;;13.00;52.60;;;;;;5011071;28;20183;-87
2023/10/15 09:08:06;;;;;;;5.33;2.40;;;13.20;52.90;;;;;;5007546;28;20749;-87
2023/10/15 09:10:32;;;;;;;8.03;2.60;;;13.10;51.60;;;;;;5008764;28;20191;-88
2023/10/15 09:12:59;;;;;;;10.60;2.90;;;13.00;51.80;;;;;;5002113;28;20628;-88
2023/10/15 09:15:29;;;;;;;8.67;2.63;;;13.10;52.50;;;;;;5008764;28;20537;-87
2023/10/15 09:17:58;;;;;;;9.40;2.87;;;13.20;52.60;;;;;;5023069;28;20186;-90
2023/10/15 09:20:32;;;;;;;5.73;2.27;;;13.30;52.20;;;;;;5007263;28;20183;-90
2023/10/15 09:23:00;;;;;;;5.73;2.60;;;13.30;51.70;;;;;;5008184;28;20183;-90
2023/10/15 09:25:27;;;;;;;7.60;2.57;;;13.30;51.40;;;;;;5004229;28;20325;-89
2023/10/15 09:27:54;;;;;;;9.33;3.20;;;13.30;51.60;;;;;;5001511;28;20211;-88
2023/10/15 09:30:27;;;;;;;6.50;2.70;;;13.40;51.80;;;;;;5023041;28;20666;-90
2023/10/15 09:32:54;;;;;;;5.87;2.53;;;13.30;51.10;;;;;;5021064;28;20186;-89
2023/10/15 09:35:21;;;;;;;11.37;3.00;;;13.30;51.30;;;;;;5012868;28;20168;-90
2023/10/15 09:37:47;;;;;;;8.53;3.20;;;13.40;51.00;;;;;;5013583;28;20191;-90
2023/10/15 09:40:18;;;;;;;12.50;3.07;;;13.30;51.40;;;;;;5012828;28;20639;-90
2023/10/15 09:42:46;;;;;;;7.20;2.63;;;13.40;51.40;;;;;;5004600;28;20249;-88
2023/10/15 09:45:18;;;;;;;8.40;2.40;;;13.40;51.80;;;;;;5003333;28;20194;-89
2023/10/15 09:47:52;;;;;;;7.67;2.83;;;13.40;52.10;;;;;;5006543;28;20214;-90
2023/10/15 09:50:25;;;;;;;7.40;2.90;;;13.50;51.80;;;;;;5005893;28;20182;-90
2023/10/15 09:53:00;;;;;;;9.27;2.70;;;13.60;51.60;;;;;;5010670;28;20644;-88
2023/10/15 09:55:32;;;;;;;8.70;3.07;;;13.60;51.40;;;;;;5012045;28;20568;-88
2023/10/15 09:58:01;;;;;;;8.27;3.23;;;13.50;51.20;;;;;;5009941;28;20187;-89
2023/10/15 10:03:40;;;;;;;7.57;3.07;;;13.50;51.80;;;;;;5013435;28;20186;-90
2023/10/15 10:06:42;;;;;;;6.63;2.60;;;13.60;51.80;;;;;;5017831;28;20179;-88
2023/10/15 10:09:28;;;;;;;7.87;3.30;;;13.70;51.40;;;;;;5008259;28;20248;-89
2023/10/15 10:12:07;;;;;;;10.57;3.33;;;13.80;51.60;;;;;;5011201;28;20245;-90
2023/10/15 10:14:41;;;;;;;9.23;3.40;;;14.00;51.70;;;;;;5009237;28;20198;-87
2023/10/15 10:17:08;;;;;;;6.27;2.83;;;14.00;51.30;;;;;;5013146;28;20178;-87
2023/10/15 10:19:34;;;;;;;4.87;2.83;;;14.00;51.00;;;;;;5012673;28;20191;-88
2023/10/15 10:21:59;;;;;;;8.17;3.10;;;14.00;50.20;;;;;;5012115;28;20245;-88
2023/10/15 10:24:41;;;;;;;8.30;2.93;;;13.80;49.90;;;;;;5008914;28;20179;-87
2023/10/15 10:27:14;;;;;;;5.53;2.33;;;13.70;50.30;;;;;;4999434;28;20220;-87
2023/10/15 10:29:49;;;;;;;8.20;2.77;;;13.80;51.00;;;;;;5006228;28;20286;-88
2023/10/15 10:32:15;;;;;;;7.70;3.03;;;13.80;50.60;;;;;;5010273;28;20484;-88
2023/10/15 10:34:47;;;;;;;6.63;2.53;;;13.70;50.00;;;;;;5008283;28;20179;-87
2023/10/15 10:37:23;;;;;;;6.97;2.77;;;13.70;50.50;;;;;;5009998;28;20180;-88
2023/10/15 10:39:49;;;;;;;8.33;2.90;;;13.60;50.30;;;;;;5013387;28;20178;-88
2023/10/15 10:42:28;;;;;;;6.83;2.60;;;13.60;50.60;;;;;;5011942;28;20314;-87
2023/10/15 10:44:56;;;;;;;8.50;2.87;;;13.70;51.20;;;;;;5004250;28;20557;-87
2023/10/15 10:47:24;;;;;;;8.17;2.73;;;13.80;50.90;;;;;;5007891;28;20224;-88
2023/10/15 10:49:55;;;;;;;9.03;3.37;;;13.90;50.10;;;;;;5011124;28;20187;-88
2023/10/15 10:52:29;;;;;;;6.60;2.33;;;13.90;49.70;;;;;;5011839;28;20183;-89
2023/10/15 10:54:57;;;;;;;7.30;2.93;;;13.70;49.30;;;;;;5025941;28;20322;-88
2023/10/15 10:57:31;;;;;;;5.87;2.80;;;13.60;49.80;;;;;;5008204;28;20673;-88
2023/10/15 10:59:58;;;;;;;5.57;3.03;;;13.60;50.30;;;;;;5009228;28;20189;-88
2023/10/15 11:02:23;;;;;;;6.50;3.03;;;13.70;50.80;;;;;;5009747;28;20233;-88
2023/10/15 11:04:50;;;;;;;6.77;3.23;;;13.80;50.50;;;;;;5011060;28;20219;-88
2023/10/15 11:07:16;;;;;;;5.67;2.20;;;13.90;50.10;;;;;;5005916;28;20225;-87
2023/10/15 11:09:42;;;;;;;6.47;2.43;;;14.00;49.70;;;;;;5015169;28;20553;-87
2023/10/15 11:12:13;;;;;;;6.87;2.77;;;13.80;50.00;;;;;;5008537;28;20183;-89
2023/10/15 11:14:39;;;;;;;8.37;2.67;;;13.80;49.90;;;;;;5004900;28;20213;-89
2023/10/15 11:17:07;;;;;;;8.10;2.70;;;13.80;49.90;;;;;;5011030;28;20632;-89
2023/10/15 11:19:33;;;;;;;6.97;2.40;;;13.80;50.50;;;;;;5011018;28;20187;-89
2023/10/15 11:21:59;;;;;;;7.20;2.80;;;13.80;50.00;;;;;;5013016;28;20179;-89
2023/10/15 11:24:26;;;;;;;7.47;3.43;;;13.70;49.60;;;;;;5002878;28;20707;-88
2023/10/15 11:26:56;;;;;;;9.90;3.53;;;13.60;49.50;;;;;;5021213;28;20216;-88
2023/10/15 11:29:23;;;;;;;9.27;2.80;;;13.60;50.10;;;;;;5002205;28;20215;-88
2023/10/15 11:31:51;;;;;;;5.67;2.50;;;13.70;49.70;;;;;;5012334;28;20639;-89
2023/10/15 11:34:22;;;;;;;6.27;2.30;;;13.70;49.50;;;;;;5011369;28;20286;-86
2023/10/15 11:36:49;;;;;;;6.60;2.47;;;13.60;49.60;;;;;;5010862;28;20190;-87
2023/10/15 11:39:19;;;;;;;8.70;3.67;;;13.60;49.90;;;;;;5011167;28;20183;-86
2023/10/15 11:41:52;;;;;;;6.50;2.70;;;13.70;50.10;;;;;;5009840;28;20187;-88
2023/10/15 11:45:16;;;;;;;6.80;2.83;;;13.70;49.80;;;;;;5005130;28;20224;-89
2023/10/15 11:47:15;;;;;;;5.00;2.47;;;13.90;50.10;;;;;;5000861;28;20314;-88
2023/10/15 11:49:44;;;;;;;7.30;2.77;;;13.80;49.60;;;;;;5011771;28;20237;-89
2023/10/15 11:52:16;;;;;;;10.60;3.53;;;13.70;49.50;;;;;;5009106;28;20249;-89
2023/10/15 11:54:49;;;;;;;8.27;3.13;;;13.70;49.40;;;;;;5010208;28;20195;-87
2023/10/15 11:57:23;;;;;;;7.53;3.20;;;13.70;50.00;;;;;;5008218;28;20186;-88
2023/10/15 11:59:50;;;;;;;8.00;3.17;;;13.80;49.40;;;;;;5000420;28;20195;-90
2023/10/15 12:02:16;;;;;;;6.00;2.77;;;13.80;49.20;;;;;;4998786;28;20179;-90
2023/10/15 12:04:42;;;;;;;9.30;3.47;;;13.70;48.70;;;;;;5015239;28;20163;-88
2023/10/15 12:07:16;;;;;;;7.23;3.27;;;13.70;48.80;;;;;;5015949;28;20249;-88
2023/10/15 12:09:47;;;;;;;8.70;3.37;;;13.60;49.20;;;;;;5031762;28;20176;-89
2023/10/15 12:12:13;;;;;;;6.63;2.70;;;13.50;49.20;;;;;;5010465;28;20246;-89
2023/10/15 12:14:40;;;;;;;7.60;2.93;;;13.50;49.50;;;;;;4997080;28;20538;-88
2023/10/15 12:17:05;;;;;;;7.97;3.10;;;13.60;50.00;;;;;;4999554;28;20195;-88
2023/10/15 12:19:31;;;;;;;7.13;2.83;;;13.60;49.70;;;;;;5025551;28;20194;-89
2023/10/15 12:22:00;;;;;;;9.90;2.80;;;13.60;49.50;;;;;;5014370;28;20198;-88
2023/10/15 12:24:26;;;;;;;6.97;2.67;;;13.60;49.90;;;;;;5009269;28;20190;-89
2023/10/15 12:26:52;;;;;;;11.77;5.93;;;13.60;50.30;;;;;;5007774;28;20565;-90
2023/10/15 12:29:21;;;;;;;5.13;2.50;;;13.70;50.40;;;;;;5012407;28;20187;-90
2023/10/15 12:31:47;;;;;;;7.87;2.90;;;13.80;50.50;;;;;;5007484;28;20191;-90
2023/10/15 12:34:12;;;;;;;10.63;3.20;;;13.90;50.30;;;;;;5009473;28;20531;-88
2023/10/15 12:36:39;;;;;;;5.40;2.97;;;14.00;50.40;;;;;;5007379;28;20190;-89
2023/10/15 12:39:08;;;;;;;6.37;2.97;;;14.00;50.20;;;;;;5009441;28;20270;-86
2023/10/15 12:41:38;;;;;;;6.77;2.67;;;14.10;49.40;;;;;;5004066;28;20558;-86
2023/10/15 12:44:11;;;;;;;6.03;2.77;;;14.00;49.30;;;;;;5008453;28;20261;-87
2023/10/15 12:46:37;;;;;;;10.17;2.90;;;13.90;49.30;;;;;;5011140;28;20215;-88
2023/10/15 12:49:03;;;;;;;6.97;3.20;;;13.90;49.30;;;;;;5012422;28;20190;-87
2023/10/15 12:51:30;;;;;;;6.37;2.90;;;13.80;49.30;;;;;;5010259;28;20191;-86
2023/10/15 12:53:56;;;;;;;5.67;2.77;;;13.80;49.80;;;;;;5009254;28;20739;-87
2023/10/15 12:56:22;;;;;;;7.13;2.80;;;13.80;49.40;;;;;;5011166;28;20187;-87
2023/10/15 12:58:49;;;;;;;7.87;3.13;;;13.70;49.50;;;;;;5008827;28;20215;-87
2023/10/15 13:01:19;;;;;;;6.23;3.27;;;13.70;49.90;;;;;;5005981;28;20182;-86
2023/10/15 13:03:47;;;;;;;7.10;3.80;;;13.70;50.00;;;;;;5007040;28;20218;-87
2023/10/15 13:06:15;;;;;;;7.50;3.10;;;13.80;50.00;;;;;;5018359;28;20183;-88
2023/10/15 13:08:41;;;;;;;9.47;3.20;;;13.80;49.90;;;;;;5008565;28;20640;-88
2023/10/15 13:11:11;;;;;;;8.00;2.90;;;13.80;50.00;;;;;;5008591;28;20183;-87